Terminal Aerodrome Forecast
Issued by NWS

Current Version | Previous Version | Text Only | Print | Product List | Glossary On
Versions: 1 2 3 4 5 6 7 8 9 10 11 12 13 14 15 16 17 18 19 20 21
000 FTUS41 KBOX 191727 TAFACK TAF KACK 191727Z 1918/2018 05018KT 6SM -SHRA BR SCT020 OVC060 FM192100 05021KT 3SM -SHRA BR OVC003 FM200400 06017KT 1/4SM FG OVC003 FM201300 05036KT 3/4SM +RA BR OVC001=

USA.gov is the U.S. government's official web portal to all federal, state and local government web resources and services.